createdAt,value
2023-08-02T00:01:33.975Z,5.50
2023-08-02T00:06:36.994Z,5.10
2023-08-02T00:11:39.924Z,5.30
2023-08-02T00:16:43.074Z,5.10
2023-08-02T00:21:46.356Z,5.20
2023-08-02T00:26:50.594Z,5.30
2023-08-02T00:31:53.507Z,4.90
2023-08-02T00:36:56.379Z,4.80
2023-08-02T00:41:59.227Z,5.30
2023-08-02T00:47:02.266Z,5.00
2023-08-02T00:52:06.551Z,4.80
2023-08-02T00:57:10.636Z,5.30
2023-08-02T01:02:13.516Z,5.40
2023-08-02T01:07:52.104Z,5.20
2023-08-02T01:17:58.598Z,5.20
2023-08-02T01:23:01.555Z,5.30
2023-08-02T01:28:07.287Z,5.00
2023-08-02T01:33:10.269Z,5.70
2023-08-02T01:38:13.284Z,5.20
2023-08-02T01:43:16.173Z,5.50
2023-08-02T01:48:19.059Z,5.40
2023-08-02T01:53:21.950Z,5.10
2023-08-02T01:58:24.890Z,5.20
2023-08-02T02:03:28.072Z,5.20
2023-08-02T02:08:31.095Z,5.20
2023-08-02T02:13:33.963Z,5.50
2023-08-02T02:18:36.754Z,5.50
2023-08-02T02:23:39.700Z,5.60
2023-08-02T02:28:42.549Z,5.60
2023-08-02T02:33:45.427Z,5.70
2023-08-02T02:38:49.927Z,5.70
2023-08-02T02:43:52.787Z,5.60
2023-08-02T02:48:56.107Z,5.80
2023-08-02T02:53:58.965Z,5.40
2023-08-02T02:59:01.849Z,5.30
2023-08-02T03:04:04.907Z,5.90
2023-08-02T03:09:08.462Z,6.10
2023-08-02T03:14:11.557Z,6.00
2023-08-02T03:19:14.488Z,6.10
2023-08-02T03:24:17.479Z,6.00
2023-08-02T03:29:20.356Z,5.90
2023-08-02T03:34:23.230Z,6.10
2023-08-02T03:39:29.047Z,5.80
2023-08-02T03:44:32.043Z,6.20
2023-08-02T03:49:36.990Z,5.70
2023-08-02T03:54:39.899Z,6.60
2023-08-02T03:59:42.767Z,6.50
2023-08-02T04:04:45.638Z,7.30
2023-08-02T04:09:48.857Z,7.30
2023-08-02T04:14:51.724Z,7.00
2023-08-02T04:19:54.594Z,6.50
2023-08-02T04:24:57.480Z,6.30
2023-08-02T04:30:00.688Z,6.00
2023-08-02T04:35:03.990Z,5.60
2023-08-02T04:40:08.313Z,5.50
2023-08-02T04:45:11.668Z,5.50
2023-08-02T04:50:14.585Z,5.20
2023-08-02T04:55:17.528Z,5.10
2023-08-02T05:00:20.510Z,5.20
2023-08-02T05:05:25.434Z,5.20
2023-08-02T05:10:28.738Z,5.20
2023-08-02T05:15:39.235Z,5.20
2023-08-02T05:20:42.588Z,4.90
2023-08-02T05:25:45.557Z,4.50
2023-08-02T05:30:48.952Z,4.60
2023-08-02T05:35:52.014Z,4.80
2023-08-02T05:40:54.892Z,4.40
2023-08-02T05:45:58.318Z,4.40
2023-08-02T05:51:01.330Z,4.50
2023-08-02T05:56:04.565Z,4.30
2023-08-02T06:01:07.912Z,4.30
2023-08-02T06:06:11.118Z,4.40
2023-08-02T06:11:14.167Z,4.50
2023-08-02T06:16:17.413Z,4.40
2023-08-02T06:21:20.378Z,4.20
2023-08-02T06:26:23.295Z,3.90
2023-08-02T06:31:26.397Z,3.80
2023-08-02T06:36:29.490Z,3.80
2023-08-02T06:41:32.553Z,3.40
2023-08-02T06:46:35.716Z,3.20
2023-08-02T06:51:41.354Z,3.50
2023-08-02T06:56:44.840Z,3.30
2023-08-02T07:01:47.953Z,3.40
2023-08-02T07:06:50.951Z,3.30
2023-08-02T07:11:53.957Z,3.20
2023-08-02T07:16:56.984Z,3.40
2023-08-02T07:21:59.888Z,3.30
2023-08-02T07:27:02.810Z,3.80
2023-08-02T07:32:06.636Z,3.80
2023-08-02T07:37:09.490Z,3.40
2023-08-02T07:42:12.518Z,3.00
2023-08-02T07:47:15.400Z,3.10
2023-08-02T07:52:18.265Z,2.80
2023-08-02T07:57:22.997Z,2.90
2023-08-02T08:02:26.573Z,2.50
2023-08-02T08:07:29.604Z,2.30
2023-08-02T08:12:32.550Z,2.40
2023-08-02T08:17:35.520Z,2.50
2023-08-02T08:22:38.455Z,2.30
2023-08-02T08:27:41.738Z,2.70
2023-08-02T08:32:45.287Z,2.50
2023-08-02T08:37:50.556Z,2.50
2023-08-02T08:42:55.645Z,2.10
2023-08-02T08:47:58.719Z,2.30
2023-08-02T08:53:03.034Z,2.50
2023-08-02T08:58:10.970Z,2.30
2023-08-02T09:03:14.542Z,2.40
2023-08-02T09:08:18.204Z,2.20
2023-08-02T09:13:28.564Z,2.50
2023-08-02T09:18:42.492Z,2.00
2023-08-02T09:23:49.680Z,2.20
2023-08-02T09:29:07.533Z,1.80
2023-08-02T09:34:11.660Z,1.50
2023-08-02T09:39:16.131Z,1.70
2023-08-02T09:44:22.921Z,1.70
2023-08-02T09:49:26.332Z,1.50
2023-08-02T09:54:31.037Z,1.80
2023-08-02T09:59:33.923Z,1.50
2023-08-02T10:04:37.007Z,1.50
2023-08-02T10:09:39.955Z,1.60
2023-08-02T10:14:42.974Z,1.70
2023-08-02T10:19:46.376Z,1.50
2023-08-02T10:24:49.255Z,1.00
2023-08-02T10:29:53.762Z,1.00
2023-08-02T10:34:57.977Z,0.90
2023-08-02T10:40:01.218Z,1.00
2023-08-02T10:45:04.206Z,0.90
2023-08-02T10:50:07.400Z,1.00
2023-08-02T10:55:19.940Z,0.90
2023-08-02T11:00:32.406Z,0.80
2023-08-02T11:05:45.532Z,0.90
2023-08-02T11:10:53.902Z,1.00
2023-08-02T11:16:04.622Z,0.90
2023-08-02T11:21:11.885Z,0.80
2023-08-02T11:31:29.051Z,0.90
2023-08-02T11:36:35.237Z,1.00
2023-08-02T11:41:38.198Z,0.80
2023-08-02T11:46:41.688Z,1.00
2023-08-02T11:51:44.899Z,0.90
2023-08-02T11:56:47.897Z,1.00
2023-08-02T12:01:50.800Z,0.80
2023-08-02T12:06:54.473Z,1.00
2023-08-02T12:11:57.456Z,1.00
2023-08-02T12:17:00.467Z,1.10
2023-08-02T12:22:03.693Z,0.80
2023-08-02T12:27:17.382Z,1.10
2023-08-02T12:32:27.594Z,1.10
2023-08-02T12:37:30.615Z,1.10
2023-08-02T12:42:34.533Z,1.30
2023-08-02T12:47:41.799Z,1.00
2023-08-02T12:52:44.997Z,1.00
2023-08-02T12:57:47.986Z,0.90
2023-08-02T13:02:50.983Z,1.10
2023-08-02T13:07:54.016Z,1.10
2023-08-02T13:12:57.509Z,1.10
2023-08-02T13:18:02.426Z,1.10
2023-08-02T13:23:09.778Z,1.00
2023-08-02T13:28:13.940Z,1.10
2023-08-02T13:33:19.138Z,1.00
2023-08-02T13:38:22.640Z,1.10
2023-08-02T13:43:27.170Z,1.20
2023-08-02T13:48:30.668Z,1.10
2023-08-02T13:53:34.620Z,1.50
2023-08-02T13:58:40.412Z,1.30
2023-08-02T14:03:43.351Z,1.80
2023-08-02T14:08:46.468Z,1.40
2023-08-02T14:13:49.286Z,1.30
2023-08-02T14:18:52.154Z,1.20
2023-08-02T14:23:55.108Z,1.40
2023-08-02T14:28:58.016Z,1.30
2023-08-02T14:34:00.893Z,1.50
2023-08-02T14:39:04.765Z,1.20
2023-08-02T14:44:07.698Z,1.30
2023-08-02T14:49:10.538Z,1.30
2023-08-02T14:54:14.541Z,1.10
2023-08-02T14:59:17.848Z,1.00
2023-08-02T15:04:21.330Z,0.90
2023-08-02T15:09:24.379Z,1.10
2023-08-02T15:14:27.773Z,1.00
2023-08-02T15:19:31.992Z,0.80
2023-08-02T15:24:35.260Z,1.20
2023-08-02T15:29:40.694Z,1.20
2023-08-02T15:34:44.468Z,1.20
2023-08-02T15:39:49.076Z,1.10
2023-08-02T15:45:01.694Z,1.10
2023-08-02T15:50:07.036Z,1.40
2023-08-02T15:55:10.053Z,1.30
2023-08-02T16:00:13.857Z,1.20
2023-08-02T16:05:17.310Z,1.30
2023-08-02T16:10:20.255Z,1.10
2023-08-02T16:15:23.168Z,1.00
2023-08-02T16:20:26.306Z,1.60
2023-08-02T16:25:29.615Z,1.30
2023-08-02T16:30:32.486Z,1.40
2023-08-02T16:35:35.577Z,1.20
2023-08-02T16:40:38.505Z,1.50
2023-08-02T16:45:41.405Z,1.20
2023-08-02T16:50:44.872Z,1.40
2023-08-02T16:55:47.820Z,1.40
2023-08-02T17:00:50.680Z,1.30
2023-08-02T17:05:53.853Z,1.30
2023-08-02T17:10:56.691Z,1.80
2023-08-02T17:16:03.595Z,1.60
2023-08-02T17:21:06.552Z,1.60
2023-08-02T17:26:09.481Z,1.50
2023-08-02T17:31:14.812Z,1.70
2023-08-02T17:36:19.028Z,1.90
2023-08-02T17:41:26.317Z,1.80
2023-08-02T17:46:29.283Z,1.80
2023-08-02T17:51:33.514Z,2.00
2023-08-02T17:56:36.448Z,1.80
2023-08-02T18:01:39.480Z,1.80
2023-08-02T18:06:42.440Z,1.80
2023-08-02T18:11:45.926Z,1.90
2023-08-02T18:16:48.970Z,1.60
2023-08-02T18:21:55.584Z,2.00
2023-08-02T18:26:58.535Z,2.00
2023-08-02T18:32:01.470Z,1.90
2023-08-02T18:37:04.688Z,2.20
2023-08-02T18:42:08.043Z,2.20
2023-08-02T18:47:11.000Z,2.10
2023-08-02T18:52:13.855Z,2.40
2023-08-02T18:57:16.723Z,2.40
2023-08-02T19:02:19.658Z,2.30
2023-08-02T19:07:25.686Z,2.80
2023-08-02T19:12:28.606Z,2.60
2023-08-02T19:17:37.511Z,2.70
2023-08-02T19:22:45.464Z,2.60
2023-08-02T19:27:55.080Z,2.80
2023-08-02T19:32:59.694Z,2.60
2023-08-02T19:38:05.066Z,3.00
2023-08-02T19:43:10.731Z,2.70
2023-08-02T19:48:14.505Z,3.20
2023-08-02T19:53:18.407Z,3.20
2023-08-02T19:58:22.316Z,3.20
2023-08-02T20:03:27.498Z,3.30
2023-08-02T20:08:35.547Z,3.20
2023-08-02T20:13:40.984Z,3.20
2023-08-02T20:18:46.695Z,3.20
2023-08-02T20:23:59.591Z,3.80
2023-08-02T20:29:02.738Z,3.70
2023-08-02T20:34:10.163Z,3.90
2023-08-02T20:39:16.076Z,3.90
2023-08-02T20:44:23.841Z,4.50
2023-08-02T20:49:26.735Z,4.40
2023-08-02T20:54:29.559Z,4.60
2023-08-02T20:59:32.592Z,4.70
2023-08-02T21:04:35.435Z,4.50
2023-08-02T21:09:38.636Z,4.40
2023-08-02T21:14:43.387Z,4.20
2023-08-02T21:19:47.862Z,4.60
2023-08-02T21:24:54.460Z,4.50
2023-08-02T21:29:59.004Z,4.50
2023-08-02T21:35:04.200Z,4.80
2023-08-02T21:40:17.780Z,4.40
2023-08-02T21:45:22.929Z,4.00
2023-08-02T21:50:27.099Z,4.60
2023-08-02T21:55:30.078Z,4.30
2023-08-02T22:00:35.194Z,4.00
2023-08-02T22:05:40.167Z,4.60
2023-08-02T22:10:44.885Z,4.80
2023-08-02T22:15:47.766Z,4.10
2023-08-02T22:20:51.080Z,3.90
2023-08-02T22:25:53.991Z,4.00
2023-08-02T22:30:56.879Z,4.00
2023-08-02T22:36:00.443Z,4.00
2023-08-02T22:41:04.271Z,3.80
2023-08-02T22:46:07.328Z,3.70
2023-08-02T22:51:10.682Z,4.10
2023-08-02T22:56:13.806Z,3.90
2023-08-02T23:01:17.951Z,3.70
2023-08-02T23:06:22.842Z,3.50
2023-08-02T23:11:25.984Z,3.60
2023-08-02T23:16:29.012Z,3.50
2023-08-02T23:21:36.044Z,3.50
2023-08-02T23:26:39.226Z,3.50
2023-08-02T23:31:42.584Z,3.10
2023-08-02T23:36:46.001Z,3.20
2023-08-02T23:41:48.886Z,3.30
2023-08-02T23:46:51.734Z,3.40
2023-08-02T23:51:54.564Z,3.30
2023-08-02T23:56:57.561Z,3.20
